TimeEST,TemperatureF,Dew PointF,Humidity,Sea Level PressureIn,VisibilityMPH,Wind Direction,Wind SpeedMPH,Gust SpeedMPH,PrecipitationIn,Events,Conditions,WindDirDegrees,DateUTC
12:53 AM,16.0,8.1,71,30.20,10.0,West,11.5,-,N/A,,Clear,280,2013-11-28 05:53:00
1:53 AM,16.0,9.0,74,30.21,10.0,West,8.1,-,N/A,,Clear,280,2013-11-28 06:53:00
2:53 AM,15.1,9.0,77,30.23,10.0,West,8.1,-,N/A,,Clear,280,2013-11-28 07:53:00
3:53 AM,16.0,10.0,77,30.25,10.0,West,8.1,-,N/A,,Clear,280,2013-11-28 08:53:00
4:53 AM,17.1,10.9,77,30.26,10.0,West,4.6,-,N/A,,Scattered Clouds,260,2013-11-28 09:53:00
5:53 AM,18.0,12.0,78,30.28,10.0,West,4.6,-,N/A,,Overcast,270,2013-11-28 10:53:00
6:53 AM,19.0,12.9,77,30.30,4.0,West,4.6,-,0.00,Snow,Light Snow,260,2013-11-28 11:53:00
7:53 AM,19.0,15.1,85,30.32,3.0,SW,4.6,-,0.00,Snow,Light Snow,230,2013-11-28 12:53:00
8:02 AM,19.4,15.8,86,30.27,2.0,Calm,Calm,-,0.00,Snow,Light Snow,0,2013-11-28 13:02:00
8:24 AM,19.4,15.8,86,30.28,1.2,Calm,Calm,-,0.00,Snow,Light Snow,0,2013-11-28 13:24:00
8:37 AM,19.4,15.8,86,30.28,1.5,Calm,Calm,-,0.00,Snow,Light Snow,0,2013-11-28 13:37:00
8:53 AM,19.9,16.0,85,30.34,2.0,Calm,Calm,-,0.00,Snow,Light Snow,0,2013-11-28 13:53:00
9:08 AM,19.4,15.8,86,30.29,3.0,SSE,3.5,-,0.00,Snow,Light Snow,150,2013-11-28 14:08:00
9:30 AM,19.4,15.8,86,30.28,2.0,SSE,5.8,-,0.00,Snow,Light Snow,160,2013-11-28 14:30:00
9:53 AM,19.9,17.1,89,30.33,4.0,South,5.8,-,0.00,Snow,Light Snow,170,2013-11-28 14:53:00
10:08 AM,21.2,17.6,86,30.28,1.8,SE,4.6,-,0.00,Snow,Light Snow,140,2013-11-28 15:08:00
10:31 AM,21.2,17.6,86,30.27,2.5,SSE,4.6,-,0.00,Snow,Light Snow,150,2013-11-28 15:31:00
10:53 AM,21.9,18.0,85,30.32,2.5,South,5.8,-,0.00,Snow,Light Snow,170,2013-11-28 15:53:00
11:02 AM,21.2,17.6,86,30.27,4.0,SE,5.8,-,0.00,Snow,Light Snow,140,2013-11-28 16:02:00
11:24 AM,21.2,17.6,86,30.26,4.0,South,6.9,-,0.00,Snow,Light Snow,190,2013-11-28 16:24:00
11:53 AM,23.0,18.0,81,30.29,10.0,SSE,8.1,-,0.00,Snow,Light Snow,150,2013-11-28 16:53:00
12:07 PM,23.0,17.6,80,30.24,9.0,SSE,6.9,-,0.00,Snow,Light Snow,150,2013-11-28 17:07:00
12:44 PM,24.8,17.6,74,30.22,10.0,South,8.1,-,0.00,,Overcast,170,2013-11-28 17:44:00
12:53 PM,24.1,18.0,77,30.27,10.0,SSE,9.2,-,0.00,,Overcast,160,2013-11-28 17:53:00
1:53 PM,25.0,17.1,72,30.26,10.0,South,8.1,-,N/A,,Overcast,180,2013-11-28 18:53:00
2:53 PM,26.1,18.0,71,30.26,10.0,SSW,4.6,-,N/A,,Overcast,200,2013-11-28 19:53:00
3:04 PM,26.6,17.6,69,30.21,10.0,Variable,4.6,-,N/A,,Overcast,0,2013-11-28 20:04:00
3:26 PM,26.6,17.6,69,30.22,9.0,SSW,3.5,-,0.00,Snow,Light Snow,210,2013-11-28 20:26:00
3:53 PM,26.1,17.1,69,30.28,6.0,SW,3.5,-,0.00,Snow,Light Snow,230,2013-11-28 20:53:00
4:53 PM,26.1,15.1,63,30.30,10.0,SW,4.6,-,0.00,,Mostly Cloudy,220,2013-11-28 21:53:00
5:53 PM,26.1,15.1,63,30.33,10.0,SSW,4.6,-,N/A,,Overcast,210,2013-11-28 22:53:00
6:53 PM,25.0,12.9,60,30.35,10.0,SW,3.5,-,N/A,,Mostly Cloudy,220,2013-11-28 23:53:00
7:53 PM,23.0,12.9,65,30.37,10.0,Calm,Calm,-,N/A,,Partly Cloudy,0,2013-11-29 00:53:00
8:53 PM,17.1,12.0,81,30.38,10.0,Calm,Calm,-,N/A,,Partly Cloudy,0,2013-11-29 01:53:00
9:53 PM,16.0,12.0,84,30.40,10.0,Calm,Calm,-,N/A,,Mostly Cloudy,0,2013-11-29 02:53:00
10:53 PM,18.0,14.0,84,30.41,10.0,Calm,Calm,-,0.00,Snow,Light Snow,0,2013-11-29 03:53:00
11:53 PM,19.0,14.0,81,30.43,9.0,Calm,Calm,-,0.00,Snow,Light Snow,0,2013-11-29 04:53:00